Air Resources Laboratory banner image
Air Resources Laboratory web site National Oceanic and Atmospheric Administration (NOAA)

wy metar


KBPI 180053Z AUTO 25015KT 10SM CLR 01/M12 A2983 RMK AO2 PK WND 27027/2358
 SLP131 T00111122=
KBYG 180053Z AUTO 33005KT 10SM CLR M01/M06 A2958 RMK AO2 SLP042 T10061056=
KCOD 180056Z AUTO 26012G18KT 230V290 10SM CLR 03/M06 A2955 RMK AO2 PRESFR
 SLP038 T00331061=
KCPR 180053Z 24020G30KT 10SM CLR 06/M12 A2971 RMK AO2 PK WND 23039/0001
 RAB39E41 SLP077 P0000 T00561117 $=
KCYS 180053Z 19007KT 10SM CLR 05/M13 A2986 RMK AO2 SLP117 T00501133=
KDGW 180053Z AUTO 21004KT 10SM CLR 06/M11 A2972 RMK AO2 PK WND 25028/2354
 SLP079 T00561106=
KEVW 180053Z AUTO 23020KT 10SM CLR 04/M12 A2991 RMK AO2 PK WND 23035/0014
 SLP126 T00391122=
KGCC 180053Z AUTO 17010KT 10SM FEW100 01/M06 A2962 RMK AO2 SLP055 T00061056 $=
KGEY 180053Z AUTO 12003KT 10SM CLR 03/M05 A2960 RMK AO2 SLP055 T00281050 $=
KJAC 180056Z 22013G22KT 9SM -SN BKN031 OVC075 00/M07 A2975 RMK AO2
 RAB19E35SNB35 SLP108 P0000 T00001067=
KLAR 180053Z AUTO 23019KT 10SM CLR 02/M13 A2988 RMK AO2 PK WND 23031/2354
 SLP128 T00171133=
KLND 180053Z AUTO 21020G44KT 10SM CLR 06/M10 A2968 RMK AO2 PK WND 20047/0017
 SLP062 T00561100=
KP60 180056Z AUTO 25007KT 180V310 M06/M07 A2966 RMK AO1 SLP081 P0002 T10561072
 $=
KRIW 180053Z AUTO 23010KT 10SM CLR 03/M09 A2969 RMK AO2 SLP074 T00331089=
KRKS 180054Z AUTO 24015KT 10SM FEW075 06/M19 A2989 RMK AO2 SLP122 T00611189=
KRWL 180053Z AUTO 21020G34KT 10SM CLR 03/M13 A2986 RMK AO2 PK WND 21044/0024
 SLP123 T00281128 PWINO $=
KSHR 180053Z AUTO 30004KT 10SM CLR M03/M06 A2960 RMK AO2 SLP062 T10281056=
KTOR 180053Z AUTO 22014KT 10SM CLR 08/M15 A2980 RMK AO2 SLP096 T00831150=
KWRL 180053Z AUTO 19007KT 10SM CLR M03/M06 A2961 RMK AO2 SLP074 T10331061=